createdAt,value
2023-03-24T00:01:42.112Z,61.65
2023-03-24T00:05:25.265Z,61.37
2023-03-24T00:09:08.103Z,61.24
2023-03-24T00:12:51.610Z,61.30
2023-03-24T00:16:38.438Z,61.07
2023-03-24T00:20:23.995Z,60.65
2023-03-24T00:24:08.576Z,60.84
2023-03-24T00:27:53.237Z,60.90
2023-03-24T00:31:39.891Z,60.94
2023-03-24T00:35:24.271Z,61.17
2023-03-24T00:39:07.327Z,61.12
2023-03-24T00:42:51.084Z,60.91
2023-03-24T00:46:34.088Z,60.61
2023-03-24T00:50:20.413Z,60.56
2023-03-24T00:54:05.076Z,60.57
2023-03-24T00:57:50.940Z,60.59
2023-03-24T01:01:36.666Z,60.38
2023-03-24T01:05:21.100Z,60.36
2023-03-24T01:09:06.083Z,60.26
2023-03-24T01:12:49.252Z,60.00
2023-03-24T01:16:32.359Z,59.82
2023-03-24T01:20:15.652Z,59.50
2023-03-24T01:23:58.964Z,59.12
2023-03-24T01:27:43.225Z,58.88
2023-03-24T01:31:26.225Z,58.63
2023-03-24T01:35:09.554Z,58.73
2023-03-24T01:38:52.417Z,58.82
2023-03-24T01:42:35.257Z,58.82
2023-03-24T01:46:20.772Z,58.74
2023-03-24T01:50:05.199Z,58.85
2023-03-24T01:53:55.618Z,59.17
2023-03-24T01:57:41.880Z,59.18
2023-03-24T02:01:30.082Z,59.14
2023-03-24T02:05:14.469Z,58.35
2023-03-24T02:08:59.313Z,58.32
2023-03-24T02:12:43.434Z,57.80
2023-03-24T02:16:57.653Z,57.82
2023-03-24T02:21:14.885Z,57.75
2023-03-24T02:25:23.483Z,58.14
2023-03-24T02:29:21.615Z,57.85
2023-03-24T02:33:25.742Z,58.83
2023-03-24T02:37:40.875Z,58.92
2023-03-24T02:41:28.439Z,58.36
2023-03-24T02:45:21.412Z,57.98
2023-03-24T02:49:12.390Z,58.47
2023-03-24T02:53:02.825Z,58.73
2023-03-24T02:56:48.939Z,59.28
2023-03-24T03:00:34.520Z,59.87
2023-03-24T03:04:20.048Z,59.97
2023-03-24T03:08:05.531Z,60.56
2023-03-24T03:11:51.631Z,60.74
2023-03-24T03:15:37.043Z,60.58
2023-03-24T03:19:21.903Z,61.01
2023-03-24T03:23:07.744Z,61.32
2023-03-24T03:26:51.912Z,61.65
2023-03-24T03:30:38.209Z,62.15
2023-03-24T03:34:28.459Z,62.56
2023-03-24T03:38:15.935Z,62.77
2023-03-24T03:42:00.578Z,63.37
2023-03-24T03:45:43.645Z,63.08
2023-03-24T03:49:26.724Z,63.17
2023-03-24T03:53:09.812Z,63.68
2023-03-24T03:56:54.000Z,64.11
2023-03-24T04:00:38.562Z,64.04
2023-03-24T04:04:38.038Z,63.98
2023-03-24T04:08:27.438Z,63.81
2023-03-24T04:12:23.362Z,63.94
2023-03-24T04:16:10.088Z,63.81
2023-03-24T04:20:02.785Z,63.63
2023-03-24T04:23:50.566Z,63.22
2023-03-24T04:27:40.071Z,63.24
2023-03-24T04:31:27.948Z,63.04
2023-03-24T04:35:14.624Z,63.33
2023-03-24T04:38:58.238Z,62.83
2023-03-24T04:42:45.427Z,62.87
2023-03-24T04:46:29.562Z,62.40
2023-03-24T04:50:13.158Z,62.32
2023-03-24T04:53:55.895Z,62.13
2023-03-24T04:57:38.922Z,62.10
2023-03-24T05:01:22.450Z,61.47
2023-03-24T05:05:07.429Z,61.22
2023-03-24T05:08:50.053Z,61.46
2023-03-24T05:12:32.760Z,61.47
2023-03-24T05:16:16.102Z,61.34
2023-03-24T05:19:58.846Z,61.32
2023-03-24T05:23:42.893Z,62.38
2023-03-24T05:27:25.753Z,62.97
2023-03-24T05:31:08.571Z,63.96
2023-03-24T05:34:51.950Z,63.85
2023-03-24T05:38:34.578Z,64.58
2023-03-24T05:42:18.692Z,65.26
2023-03-24T05:46:01.387Z,65.77
2023-03-24T05:49:44.118Z,66.33
2023-03-24T05:53:26.847Z,66.84
2023-03-24T05:57:13.538Z,67.33
2023-03-24T06:00:57.653Z,67.77
2023-03-24T06:04:45.988Z,67.42
2023-03-24T06:08:28.904Z,67.78
2023-03-24T06:12:12.422Z,68.54
2023-03-24T06:15:59.349Z,68.90
2023-03-24T06:19:48.813Z,69.07
2023-03-24T06:23:33.896Z,69.02
2023-03-24T06:27:18.805Z,67.65
2023-03-24T06:31:01.492Z,67.34
2023-03-24T06:34:46.991Z,67.17
2023-03-24T06:38:29.679Z,66.21
2023-03-24T06:42:16.048Z,66.06
2023-03-24T06:46:02.076Z,65.78
2023-03-24T06:49:46.340Z,65.36
2023-03-24T06:53:29.030Z,65.65
2023-03-24T06:57:11.848Z,64.94
2023-03-24T07:00:55.259Z,65.20
2023-03-24T07:04:37.956Z,65.50
2023-03-24T07:12:08.201Z,65.35
2023-03-24T07:15:51.367Z,65.03
2023-03-24T07:19:34.068Z,64.55
2023-03-24T07:23:16.846Z,64.01
2023-03-24T07:27:01.048Z,64.23
2023-03-24T07:30:43.821Z,64.66
2023-03-24T07:34:27.088Z,65.13
2023-03-24T07:38:10.295Z,66.15
2023-03-24T07:41:53.086Z,66.58
2023-03-24T07:45:37.194Z,67.02
2023-03-24T07:49:20.365Z,66.60
2023-03-24T07:53:03.118Z,67.47
2023-03-24T07:56:45.928Z,70.26
2023-03-24T08:00:33.081Z,62.41
2023-03-24T08:04:17.534Z,63.28
2023-03-24T08:08:00.267Z,63.49
2023-03-24T08:11:42.939Z,63.30
2023-03-24T08:15:27.123Z,61.80
2023-03-24T08:19:09.942Z,61.66
2023-03-24T08:22:54.490Z,61.58
2023-03-24T08:26:37.739Z,61.93
2023-03-24T08:30:22.117Z,61.75
2023-03-24T08:34:06.492Z,62.10
2023-03-24T08:37:49.369Z,62.06
2023-03-24T08:41:38.193Z,62.21
2023-03-24T08:45:27.492Z,62.36
2023-03-24T08:49:10.683Z,62.36
2023-03-24T08:52:54.747Z,62.43
2023-03-24T08:56:41.472Z,62.52
2023-03-24T09:00:24.812Z,62.00
2023-03-24T09:04:08.240Z,61.70
2023-03-24T09:08:00.610Z,62.57
2023-03-24T09:11:43.285Z,63.03
2023-03-24T09:15:26.308Z,63.24
2023-03-24T09:19:09.196Z,63.38
2023-03-24T09:22:55.823Z,63.58
2023-03-24T09:26:39.799Z,63.47
2023-03-24T09:30:22.488Z,63.93
2023-03-24T09:34:05.119Z,64.62
2023-03-24T09:37:47.843Z,66.19
2023-03-24T09:41:33.921Z,67.41
2023-03-24T09:45:20.426Z,67.45
2023-03-24T09:49:03.962Z,69.76
2023-03-24T09:52:50.336Z,69.49
2023-03-24T09:56:36.788Z,70.64
2023-03-24T10:00:23.993Z,71.00
2023-03-24T10:04:15.035Z,71.42
2023-03-24T10:08:01.175Z,71.61
2023-03-24T10:11:46.994Z,72.37
2023-03-24T10:15:38.235Z,72.69
2023-03-24T10:19:28.448Z,73.70
2023-03-24T10:23:22.835Z,73.70
2023-03-24T10:27:11.200Z,73.02
2023-03-24T10:30:57.343Z,72.00
2023-03-24T10:34:40.640Z,72.31
2023-03-24T10:38:24.116Z,72.14
2023-03-24T10:42:07.235Z,71.72
2023-03-24T10:45:51.928Z,71.08
2023-03-24T10:49:36.071Z,70.84
2023-03-24T10:53:20.290Z,70.08
2023-03-24T10:57:04.666Z,71.68
2023-03-24T11:00:48.713Z,69.81
2023-03-24T11:04:32.152Z,69.94
2023-03-24T11:08:27.009Z,70.33
2023-03-24T11:12:30.507Z,70.92
2023-03-24T11:16:15.117Z,71.40
2023-03-24T11:20:00.077Z,71.33
2023-03-24T11:23:45.589Z,72.68
2023-03-24T11:27:28.491Z,76.26
2023-03-24T11:31:19.130Z,77.80
2023-03-24T11:35:06.046Z,78.59
2023-03-24T11:39:00.325Z,79.02
2023-03-24T11:42:46.069Z,78.95
2023-03-24T11:46:29.242Z,78.82
2023-03-24T11:50:17.640Z,78.88
2023-03-24T11:54:04.409Z,78.64
2023-03-24T11:57:52.965Z,77.50
2023-03-24T12:01:38.682Z,76.00
2023-03-24T12:05:31.697Z,74.72
2023-03-24T12:09:22.166Z,72.06
2023-03-24T12:13:18.787Z,71.41
2023-03-24T12:17:12.557Z,70.57
2023-03-24T12:20:59.692Z,67.70
2023-03-24T12:24:55.001Z,65.96
2023-03-24T12:28:53.472Z,65.78
2023-03-24T12:32:43.150Z,65.90
2023-03-24T12:36:40.024Z,65.89
2023-03-24T12:40:40.065Z,65.26
2023-03-24T12:44:36.926Z,64.81
2023-03-24T12:48:35.187Z,63.14
2023-03-24T12:52:57.964Z,62.20
2023-03-24T12:56:54.251Z,61.83
2023-03-24T13:00:42.654Z,60.34
2023-03-24T13:04:28.443Z,61.00
2023-03-24T13:08:16.515Z,61.86
2023-03-24T13:12:03.828Z,62.56
2023-03-24T13:15:48.667Z,64.92
2023-03-24T13:19:32.262Z,66.59
2023-03-24T13:23:28.737Z,66.15
2023-03-24T13:27:17.420Z,67.22
2023-03-24T13:31:01.803Z,65.27
2023-03-24T13:34:48.985Z,65.50
2023-03-24T13:38:36.430Z,64.23
2023-03-24T13:42:31.597Z,64.09
2023-03-24T13:46:15.083Z,64.27
2023-03-24T13:50:01.880Z,64.95
2023-03-24T13:53:47.088Z,65.85
2023-03-24T13:57:31.400Z,65.90
2023-03-24T14:01:32.764Z,65.85
2023-03-24T14:05:35.859Z,66.38
2023-03-24T14:09:21.893Z,66.96
2023-03-24T14:13:06.676Z,67.18
2023-03-24T14:16:52.979Z,67.47
2023-03-24T14:20:37.370Z,67.17
2023-03-24T14:24:25.403Z,67.65
2023-03-24T14:28:21.437Z,66.61
2023-03-24T14:32:17.185Z,66.27
2023-03-24T14:36:06.680Z,65.10
2023-03-24T14:39:50.065Z,64.49
2023-03-24T14:43:54.453Z,63.64
2023-03-24T14:47:39.562Z,63.99
2023-03-24T14:51:36.704Z,62.88
2023-03-24T14:55:20.087Z,63.81
2023-03-24T14:59:08.873Z,64.03
2023-03-24T15:02:52.502Z,64.08
2023-03-24T15:06:44.539Z,64.38
2023-03-24T15:10:27.294Z,65.01
2023-03-24T15:14:20.220Z,65.10
2023-03-24T15:18:03.077Z,64.89
2023-03-24T15:21:48.480Z,62.88
2023-03-24T15:25:31.691Z,63.05
2023-03-24T15:29:16.001Z,63.23
2023-03-24T15:32:58.756Z,63.61
2023-03-24T15:36:46.265Z,63.26
2023-03-24T15:40:33.779Z,63.18
2023-03-24T15:44:21.461Z,63.28
2023-03-24T15:48:06.953Z,63.51
2023-03-24T15:51:51.326Z,63.96
2023-03-24T15:55:35.865Z,63.79
2023-03-24T15:59:19.816Z,63.74
2023-03-24T16:03:04.719Z,64.89
2023-03-24T16:06:52.271Z,67.04
2023-03-24T16:10:40.575Z,69.80
2023-03-24T16:14:26.885Z,72.63
2023-03-24T16:18:15.128Z,76.19
2023-03-24T16:21:58.035Z,78.71
2023-03-24T16:25:41.489Z,81.00
2023-03-24T16:29:25.504Z,82.04
2023-03-24T16:33:08.330Z,83.49
2023-03-24T16:36:53.004Z,83.82
2023-03-24T16:40:39.098Z,83.64
2023-03-24T16:44:22.386Z,82.88
2023-03-24T16:48:06.848Z,83.81
2023-03-24T16:51:49.612Z,83.88
2023-03-24T16:55:32.483Z,83.61
2023-03-24T16:59:15.962Z,83.93
2023-03-24T17:02:59.863Z,83.48
2023-03-24T17:06:47.047Z,83.41
2023-03-24T17:10:29.838Z,83.17
2023-03-24T17:14:13.122Z,81.90
2023-03-24T17:17:56.477Z,80.06
2023-03-24T17:21:41.748Z,80.19
2023-03-24T17:25:29.104Z,80.62
2023-03-24T17:29:13.122Z,80.28
2023-03-24T17:32:57.760Z,80.51
2023-03-24T17:36:40.935Z,80.76
2023-03-24T17:40:24.938Z,80.18
2023-03-24T17:44:07.633Z,77.16
2023-03-24T17:47:50.748Z,75.81
2023-03-24T17:51:33.519Z,74.21
2023-03-24T17:55:17.922Z,74.95
2023-03-24T17:59:03.399Z,75.69
2023-03-24T18:02:47.011Z,74.11
2023-03-24T18:06:30.764Z,74.13
2023-03-24T18:10:13.941Z,73.81
2023-03-24T18:13:56.706Z,73.22
2023-03-24T18:17:40.739Z,73.72
2023-03-24T18:21:23.451Z,74.20
2023-03-24T18:25:08.539Z,74.44
2023-03-24T18:28:51.514Z,73.99
2023-03-24T18:32:35.810Z,73.91
2023-03-24T18:36:26.206Z,73.10
2023-03-24T18:40:10.100Z,73.65
2023-03-24T18:43:52.742Z,72.65
2023-03-24T18:47:36.402Z,73.26
2023-03-24T18:51:20.853Z,73.59
2023-03-24T18:55:03.456Z,83.11
2023-03-24T18:58:49.227Z,73.28
2023-03-24T19:02:33.462Z,72.12
2023-03-24T19:06:16.990Z,72.58
2023-03-24T19:10:01.027Z,71.96
2023-03-24T19:13:46.145Z,71.40
2023-03-24T19:17:28.958Z,70.82
2023-03-24T19:21:11.933Z,70.64
2023-03-24T19:24:54.681Z,69.85
2023-03-24T19:28:38.684Z,69.32
2023-03-24T19:32:21.343Z,69.16
2023-03-24T19:36:04.509Z,69.12
2023-03-24T19:39:47.213Z,69.28
2023-03-24T19:43:29.870Z,69.17
2023-03-24T19:47:13.849Z,68.25
2023-03-24T19:50:56.817Z,65.31
2023-03-24T19:54:39.536Z,65.32
2023-03-24T19:58:22.197Z,64.97
2023-03-24T20:02:04.857Z,64.39
2023-03-24T20:05:49.303Z,64.27
2023-03-24T20:09:32.265Z,65.40
2023-03-24T20:13:14.951Z,66.14
2023-03-24T20:16:57.638Z,67.38
2023-03-24T20:20:40.326Z,66.45
2023-03-24T20:24:24.473Z,66.14
2023-03-24T20:28:07.766Z,66.44
2023-03-24T20:31:50.663Z,66.95
2023-03-24T20:35:35.162Z,67.32
2023-03-24T20:39:20.446Z,67.33
2023-03-24T20:43:04.418Z,67.72
2023-03-24T20:46:47.059Z,67.95
2023-03-24T20:50:29.974Z,67.99
2023-03-24T20:54:13.412Z,68.54
2023-03-24T20:57:56.498Z,68.75
2023-03-24T21:01:41.967Z,68.91
2023-03-24T21:05:24.635Z,69.23
2023-03-24T21:09:07.729Z,69.07
2023-03-24T21:12:54.132Z,68.43
2023-03-24T21:16:37.779Z,68.73
2023-03-24T21:20:22.223Z,68.50
2023-03-24T21:24:05.260Z,68.97
2023-03-24T21:27:48.678Z,68.74
2023-03-24T21:31:31.411Z,68.79
2023-03-24T21:35:15.095Z,69.16
2023-03-24T21:38:59.163Z,68.74
2023-03-24T21:42:42.492Z,69.00
2023-03-24T21:46:27.892Z,69.01
2023-03-24T21:50:11.476Z,69.17
2023-03-24T21:53:55.859Z,69.76
2023-03-24T21:57:39.890Z,69.60
2023-03-24T22:01:22.616Z,70.08
2023-03-24T22:05:07.010Z,69.95
2023-03-24T22:08:49.833Z,70.36
2023-03-24T22:12:32.488Z,70.65
2023-03-24T22:16:16.494Z,70.65
2023-03-24T22:19:59.216Z,70.95
2023-03-24T22:23:42.675Z,70.61
2023-03-24T22:27:25.760Z,70.03
2023-03-24T22:31:10.057Z,70.18
2023-03-24T22:34:54.076Z,70.58
2023-03-24T22:38:36.991Z,70.78
2023-03-24T22:42:19.599Z,70.32
2023-03-24T22:46:02.305Z,69.88
2023-03-24T22:49:45.020Z,70.08
2023-03-24T22:53:29.094Z,70.39
2023-03-24T22:57:12.009Z,69.94
2023-03-24T23:00:57.184Z,69.87
2023-03-24T23:04:40.832Z,69.84
2023-03-24T23:08:24.653Z,70.13
2023-03-24T23:12:11.301Z,70.13
2023-03-24T23:15:54.427Z,69.53
2023-03-24T23:19:37.462Z,69.99
2023-03-24T23:23:20.768Z,69.59
2023-03-24T23:27:04.575Z,69.41
2023-03-24T23:30:48.580Z,69.92
2023-03-24T23:34:31.362Z,69.58
2023-03-24T23:38:14.026Z,69.66
2023-03-24T23:41:56.625Z,69.84
2023-03-24T23:45:39.893Z,69.15
2023-03-24T23:49:23.980Z,69.36
2023-03-24T23:53:06.614Z,69.82
2023-03-24T23:56:51.256Z,70.11
